This is the latest recevied weather packets stored in our database for station/object KB0BS-13. If no packets are shown the sender has not sent any weather packets the latest 10 day(s).
| Time | Temp. | Humidity | Pressure | Rain* | Wind** | Luminosity | Snow |
|---|---|---|---|---|---|---|---|
| 1778080567 | 3.89° C | 66% | 1013 hPa | 0 mm | - | 214 W/m² | - |
| 1778080263 | 3.89° C | 67% | 1012.9 hPa | 0 mm | - | 228 W/m² | - |
| 1778079960 | 3.89° C | 66% | 1012.9 hPa | 0 mm | - | 230 W/m² | - |
| 1778079657 | 3.89° C | 64% | 1012.9 hPa | 0 mm | - | 226 W/m² | - |
| 1778079354 | 3.89° C | 65% | 1013 hPa | 0 mm | - | 232 W/m² | - |
| 1778079051 | 3.89° C | 66% | 1013 hPa | 0 mm | - | 231 W/m² | - |
| 1778078748 | 3.89° C | 68% | 1012.9 hPa | 0 mm | - | 230 W/m² | - |
| 1778078445 | 3.89° C | 70% | 1012.8 hPa | 0 mm | - | 221 W/m² | - |
| 1778078143 | 3.89° C | 70% | 1012.8 hPa | 0 mm | - | 221 W/m² | - |
| 1778077841 | 3.89° C | 72% | 1012.8 hPa | 0 mm | - | 218 W/m² | - |
| 1778077538 | 3.33° C | 70% | 1012.8 hPa | 0 mm | - | 214 W/m² | - |
| 1778077237 | 3.33° C | 72% | 1012.6 hPa | 0 mm | - | 196 W/m² | - |
| 1778076934 | 3.33° C | 73% | 1012.5 hPa | 0 mm | - | 189 W/m² | - |
| 1778076632 | 3.33° C | 72% | 1012.8 hPa | 0 mm | - | 195 W/m² | - |
| 1778076329 | 3.33° C | 75% | 1012.7 hPa | 0 mm | - | 194 W/m² | - |
| 1778076026 | 3.33° C | 74% | 1012.9 hPa | 0 mm | - | 182 W/m² | - |
| 1778075723 | 2.78° C | 75% | 1012.9 hPa | 0 mm | - | 179 W/m² | - |
| 1778075419 | 2.78° C | 77% | 1012.9 hPa | 0 mm | - | 164 W/m² | - |
| 1778075115 | 2.78° C | 77% | 1012.8 hPa | 0 mm | - | 156 W/m² | - |
| 1778074812 | 2.78° C | 76% | 1012.9 hPa | 0 mm | - | 145 W/m² | - |
| 1778074509 | 2.78° C | 76% | 1012.8 hPa | 0 mm | - | 134 W/m² | - |
| 1778074206 | 2.78° C | 77% | 1012.8 hPa | 0 mm | - | 127 W/m² | - |
| 1778073903 | 2.78° C | 78% | 1012.7 hPa | 0 mm | - | 128 W/m² | - |
| 1778073600 | 2.22° C | 77% | 1012.7 hPa | 0 mm | - | 124 W/m² | - |
| 1778073297 | 2.22° C | 78% | 1012.7 hPa | 0 mm | - | 114 W/m² | - |
* Rain latest hour (hover to see other rain measurements)
** Current wind speed in m/s (hover to see current wind gust speed)